Forks Township, Pennsylvania
Current Conditions -  °F | °C
As of 8:51 AM on Wednesday 28 Jan 2015 (Local Time) from KABE Reporting Station
Clear Clear  
Wind Chill:   Ceiling: Unl
Heat Index: 19°   Visibility: 10mi
Dew Point:   Wind: 12mph
Humidity: 47%   Direction: 320°NW
Pressure: 30.11"   Gusts: NA
Location:  40.7421°N, 75.2249°W
Report Text: KABE 281351Z 32010KT 10SM CLR M07/M17 A3011 RMK AO2 SLP204 T10721167
Loading
Personal Weather Stations






























Interactive Weather Map New forecast layout! Learn more

10-Day Weather Forecast

Advertisements
Track Severe Weather on mobile